sensor_id;sensor_type;location;lat;lon;timestamp;P1;durP1;ratioP1;P2;durP2;ratioP2
31130;SDS011;20292;50.944;4.034;2023-11-21T00:02:12;47.40;;;20.77;;
31130;SDS011;20292;50.944;4.034;2023-11-21T00:04:37;49.35;;;21.05;;
31130;SDS011;20292;50.944;4.034;2023-11-21T00:07:03;53.42;;;21.88;;
31130;SDS011;20292;50.944;4.034;2023-11-21T00:09:28;51.92;;;23.73;;
31130;SDS011;20292;50.944;4.034;2023-11-21T00:11:54;52.85;;;21.85;;
31130;SDS011;20292;50.944;4.034;2023-11-21T00:14:19;44.35;;;21.23;;
31130;SDS011;20292;50.944;4.034;2023-11-21T00:16:45;48.15;;;22.65;;
31130;SDS011;20292;50.944;4.034;2023-11-21T00:19:11;47.78;;;22.25;;
31130;SDS011;20292;50.944;4.034;2023-11-21T00:21:37;45.60;;;22.55;;
31130;SDS011;20292;50.944;4.034;2023-11-21T00:24:03;46.13;;;21.52;;
31130;SDS011;20292;50.944;4.034;2023-11-21T00:26:28;47.55;;;21.15;;
31130;SDS011;20292;50.944;4.034;2023-11-21T00:28:56;48.88;;;21.13;;
31130;SDS011;20292;50.944;4.034;2023-11-21T00:31:21;47.17;;;21.60;;
31130;SDS011;20292;50.944;4.034;2023-11-21T00:33:47;47.95;;;21.45;;
31130;SDS011;20292;50.944;4.034;2023-11-21T00:36:13;44.35;;;22.38;;
31130;SDS011;20292;50.944;4.034;2023-11-21T00:38:38;45.80;;;20.02;;
31130;SDS011;20292;50.944;4.034;2023-11-21T00:41:05;41.10;;;20.98;;
31130;SDS011;20292;50.944;4.034;2023-11-21T00:43:31;40.85;;;19.63;;
31130;SDS011;20292;50.944;4.034;2023-11-21T00:45:58;39.90;;;20.23;;
31130;SDS011;20292;50.944;4.034;2023-11-21T00:48:23;42.05;;;19.77;;
31130;SDS011;20292;50.944;4.034;2023-11-21T00:50:50;38.92;;;20.17;;
31130;SDS011;20292;50.944;4.034;2023-11-21T00:53:15;39.13;;;19.60;;
31130;SDS011;20292;50.944;4.034;2023-11-21T00:55:42;43.60;;;18.13;;
31130;SDS011;20292;50.944;4.034;2023-11-21T00:58:07;39.92;;;18.98;;
31130;SDS011;20292;50.944;4.034;2023-11-21T01:00:33;38.38;;;19.27;;
31130;SDS011;20292;50.944;4.034;2023-11-21T01:02:59;37.15;;;18.63;;
31130;SDS011;20292;50.944;4.034;2023-11-21T01:05:25;38.13;;;19.63;;
31130;SDS011;20292;50.944;4.034;2023-11-21T01:07:51;36.97;;;18.67;;
31130;SDS011;20292;50.944;4.034;2023-11-21T01:10:17;40.42;;;19.27;;
31130;SDS011;20292;50.944;4.034;2023-11-21T01:12:43;34.90;;;18.65;;
31130;SDS011;20292;50.944;4.034;2023-11-21T01:15:08;40.28;;;19.58;;
31130;SDS011;20292;50.944;4.034;2023-11-21T01:17:36;37.60;;;19.50;;
31130;SDS011;20292;50.944;4.034;2023-11-21T01:20:03;31.33;;;18.00;;
31130;SDS011;20292;50.944;4.034;2023-11-21T01:22:35;34.92;;;18.10;;
31130;SDS011;20292;50.944;4.034;2023-11-21T01:25:01;39.55;;;18.95;;
31130;SDS011;20292;50.944;4.034;2023-11-21T01:27:29;32.97;;;18.60;;
31130;SDS011;20292;50.944;4.034;2023-11-21T01:29:55;26.65;;;16.58;;
31130;SDS011;20292;50.944;4.034;2023-11-21T01:32:20;35.55;;;16.73;;
31130;SDS011;20292;50.944;4.034;2023-11-21T01:34:46;33.25;;;17.55;;
31130;SDS011;20292;50.944;4.034;2023-11-21T01:37:12;33.28;;;16.17;;
31130;SDS011;20292;50.944;4.034;2023-11-21T01:39:38;32.42;;;17.23;;
31130;SDS011;20292;50.944;4.034;2023-11-21T01:42:05;36.22;;;17.52;;
31130;SDS011;20292;50.944;4.034;2023-11-21T01:44:31;32.42;;;17.23;;
31130;SDS011;20292;50.944;4.034;2023-11-21T01:46:56;31.02;;;16.90;;
31130;SDS011;20292;50.944;4.034;2023-11-21T01:49:22;32.25;;;16.45;;
31130;SDS011;20292;50.944;4.034;2023-11-21T01:51:48;34.60;;;17.17;;
31130;SDS011;20292;50.944;4.034;2023-11-21T01:54:16;35.58;;;17.45;;
31130;SDS011;20292;50.944;4.034;2023-11-21T01:56:46;32.08;;;17.67;;
31130;SDS011;20292;50.944;4.034;2023-11-21T01:59:12;33.08;;;17.67;;
31130;SDS011;20292;50.944;4.034;2023-11-21T02:01:42;39.00;;;17.77;;
31130;SDS011;20292;50.944;4.034;2023-11-21T02:04:08;41.28;;;18.20;;
31130;SDS011;20292;50.944;4.034;2023-11-21T02:06:34;33.55;;;18.30;;
31130;SDS011;20292;50.944;4.034;2023-11-21T02:09:00;30.52;;;16.85;;
31130;SDS011;20292;50.944;4.034;2023-11-21T02:11:26;28.98;;;17.52;;
31130;SDS011;20292;50.944;4.034;2023-11-21T02:13:52;29.70;;;16.90;;
31130;SDS011;20292;50.944;4.034;2023-11-21T02:16:19;38.95;;;17.55;;
31130;SDS011;20292;50.944;4.034;2023-11-21T02:18:46;32.28;;;17.42;;
31130;SDS011;20292;50.944;4.034;2023-11-21T02:21:13;34.92;;;19.20;;
31130;SDS011;20292;50.944;4.034;2023-11-21T02:23:39;33.10;;;17.58;;
31130;SDS011;20292;50.944;4.034;2023-11-21T02:26:09;35.65;;;18.95;;
31130;SDS011;20292;50.944;4.034;2023-11-21T02:28:35;37.28;;;17.95;;
31130;SDS011;20292;50.944;4.034;2023-11-21T02:31:01;34.42;;;18.23;;
31130;SDS011;20292;50.944;4.034;2023-11-21T02:33:29;32.40;;;17.85;;
31130;SDS011;20292;50.944;4.034;2023-11-21T02:35:58;32.03;;;18.05;;
31130;SDS011;20292;50.944;4.034;2023-11-21T02:38:27;38.05;;;18.20;;
31130;SDS011;20292;50.944;4.034;2023-11-21T02:40:53;30.15;;;17.17;;
31130;SDS011;20292;50.944;4.034;2023-11-21T02:43:19;34.45;;;18.08;;
31130;SDS011;20292;50.944;4.034;2023-11-21T02:45:44;30.70;;;18.08;;
31130;SDS011;20292;50.944;4.034;2023-11-21T02:48:10;31.42;;;17.95;;
31130;SDS011;20292;50.944;4.034;2023-11-21T02:50:35;32.78;;;17.20;;
31130;SDS011;20292;50.944;4.034;2023-11-21T02:53:02;33.55;;;17.38;;
31130;SDS011;20292;50.944;4.034;2023-11-21T02:55:28;31.63;;;17.38;;
31130;SDS011;20292;50.944;4.034;2023-11-21T02:57:54;35.80;;;18.27;;
31130;SDS011;20292;50.944;4.034;2023-11-21T03:00:21;34.33;;;18.17;;
31130;SDS011;20292;50.944;4.034;2023-11-21T03:02:49;33.60;;;17.38;;
31130;SDS011;20292;50.944;4.034;2023-11-21T03:05:14;38.60;;;19.15;;
31130;SDS011;20292;50.944;4.034;2023-11-21T03:07:40;31.02;;;17.85;;
31130;SDS011;20292;50.944;4.034;2023-11-21T03:10:06;37.90;;;17.63;;
31130;SDS011;20292;50.944;4.034;2023-11-21T03:12:36;31.27;;;17.85;;
31130;SDS011;20292;50.944;4.034;2023-11-21T03:15:02;36.15;;;17.92;;
31130;SDS011;20292;50.944;4.034;2023-11-21T03:17:28;35.80;;;17.58;;
31130;SDS011;20292;50.944;4.034;2023-11-21T03:19:54;38.72;;;18.45;;
31130;SDS011;20292;50.944;4.034;2023-11-21T03:22:19;35.75;;;18.73;;
31130;SDS011;20292;50.944;4.034;2023-11-21T03:24:45;35.88;;;18.38;;
31130;SDS011;20292;50.944;4.034;2023-11-21T03:27:11;35.80;;;17.58;;
31130;SDS011;20292;50.944;4.034;2023-11-21T03:29:37;36.33;;;17.50;;
31130;SDS011;20292;50.944;4.034;2023-11-21T03:32:02;30.77;;;17.95;;
31130;SDS011;20292;50.944;4.034;2023-11-21T03:34:28;33.50;;;18.25;;
31130;SDS011;20292;50.944;4.034;2023-11-21T03:36:54;30.15;;;17.33;;
31130;SDS011;20292;50.944;4.034;2023-11-21T03:39:20;33.10;;;16.92;;
31130;SDS011;20292;50.944;4.034;2023-11-21T03:41:46;28.55;;;17.10;;
31130;SDS011;20292;50.944;4.034;2023-11-21T03:44:13;33.15;;;18.13;;
31130;SDS011;20292;50.944;4.034;2023-11-21T03:46:39;31.63;;;17.67;;
31130;SDS011;20292;50.944;4.034;2023-11-21T03:49:04;37.55;;;17.23;;
31130;SDS011;20292;50.944;4.034;2023-11-21T03:51:30;35.88;;;18.05;;
31130;SDS011;20292;50.944;4.034;2023-11-21T03:53:55;35.15;;;16.48;;
31130;SDS011;20292;50.944;4.034;2023-11-21T03:56:21;32.63;;;16.85;;
31130;SDS011;20292;50.944;4.034;2023-11-21T03:58:47;31.13;;;16.48;;
31130;SDS011;20292;50.944;4.034;2023-11-21T04:01:23;27.67;;;16.75;;
31130;SDS011;20292;50.944;4.034;2023-11-21T04:06:15;28.52;;;15.65;;
31130;SDS011;20292;50.944;4.034;2023-11-21T04:08:42;35.13;;;17.38;;
31130;SDS011;20292;50.944;4.034;2023-11-21T04:11:11;29.60;;;17.05;;
31130;SDS011;20292;50.944;4.034;2023-11-21T04:13:37;29.42;;;16.50;;
31130;SDS011;20292;50.944;4.034;2023-11-21T04:16:04;32.40;;;17.48;;
31130;SDS011;20292;50.944;4.034;2023-11-21T04:18:35;31.13;;;16.05;;
31130;SDS011;20292;50.944;4.034;2023-11-21T04:21:01;34.63;;;17.02;;
31130;SDS011;20292;50.944;4.034;2023-11-21T04:23:28;37.17;;;17.63;;
31130;SDS011;20292;50.944;4.034;2023-11-21T04:25:54;31.50;;;16.80;;
31130;SDS011;20292;50.944;4.034;2023-11-21T04:28:22;31.85;;;16.75;;
31130;SDS011;20292;50.944;4.034;2023-11-21T04:30:48;27.33;;;16.45;;
31130;SDS011;20292;50.944;4.034;2023-11-21T04:33:13;28.73;;;16.80;;
31130;SDS011;20292;50.944;4.034;2023-11-21T04:35:39;28.52;;;16.15;;
31130;SDS011;20292;50.944;4.034;2023-11-21T04:38:04;28.52;;;15.60;;
31130;SDS011;20292;50.944;4.034;2023-11-21T04:40:30;33.30;;;15.93;;
31130;SDS011;20292;50.944;4.034;2023-11-21T04:42:55;26.85;;;15.93;;
31130;SDS011;20292;50.944;4.034;2023-11-21T04:45:22;31.27;;;16.52;;
31130;SDS011;20292;50.944;4.034;2023-11-21T04:47:47;33.13;;;17.42;;
31130;SDS011;20292;50.944;4.034;2023-11-21T04:50:13;34.10;;;17.13;;
31130;SDS011;20292;50.944;4.034;2023-11-21T04:52:39;32.55;;;16.92;;
31130;SDS011;20292;50.944;4.034;2023-11-21T04:55:05;31.67;;;16.83;;
31130;SDS011;20292;50.944;4.034;2023-11-21T04:57:34;32.63;;;17.55;;
31130;SDS011;20292;50.944;4.034;2023-11-21T05:00:00;34.40;;;17.95;;
31130;SDS011;20292;50.944;4.034;2023-11-21T05:02:26;35.80;;;17.38;;
31130;SDS011;20292;50.944;4.034;2023-11-21T05:04:51;30.88;;;18.08;;
31130;SDS011;20292;50.944;4.034;2023-11-21T05:07:18;28.85;;;17.33;;
31130;SDS011;20292;50.944;4.034;2023-11-21T05:09:43;28.60;;;16.38;;
31130;SDS011;20292;50.944;4.034;2023-11-21T05:12:10;30.90;;;17.38;;
31130;SDS011;20292;50.944;4.034;2023-11-21T05:14:39;29.98;;;17.77;;
31130;SDS011;20292;50.944;4.034;2023-11-21T05:17:05;29.38;;;17.40;;
31130;SDS011;20292;50.944;4.034;2023-11-21T05:19:31;30.95;;;17.83;;
31130;SDS011;20292;50.944;4.034;2023-11-21T05:21:57;31.55;;;18.05;;
31130;SDS011;20292;50.944;4.034;2023-11-21T05:24:25;31.42;;;17.40;;
31130;SDS011;20292;50.944;4.034;2023-11-21T05:26:51;31.67;;;16.92;;
31130;SDS011;20292;50.944;4.034;2023-11-21T05:29:16;33.15;;;16.63;;
31130;SDS011;20292;50.944;4.034;2023-11-21T05:31:42;34.88;;;17.92;;
31130;SDS011;20292;50.944;4.034;2023-11-21T05:34:07;35.53;;;17.02;;
31130;SDS011;20292;50.944;4.034;2023-11-21T05:36:33;33.83;;;17.52;;
31130;SDS011;20292;50.944;4.034;2023-11-21T05:38:58;36.60;;;17.42;;
31130;SDS011;20292;50.944;4.034;2023-11-21T05:41:24;30.85;;;17.17;;
31130;SDS011;20292;50.944;4.034;2023-11-21T05:43:50;35.85;;;17.70;;
31130;SDS011;20292;50.944;4.034;2023-11-21T05:46:16;32.00;;;16.50;;
31130;SDS011;20292;50.944;4.034;2023-11-21T05:48:41;28.30;;;16.38;;
31130;SDS011;20292;50.944;4.034;2023-11-21T05:51:07;33.08;;;17.70;;
31130;SDS011;20292;50.944;4.034;2023-11-21T05:53:33;30.45;;;17.10;;
31130;SDS011;20292;50.944;4.034;2023-11-21T05:55:59;36.83;;;18.23;;
31130;SDS011;20292;50.944;4.034;2023-11-21T05:58:25;27.85;;;17.02;;
31130;SDS011;20292;50.944;4.034;2023-11-21T06:00:50;25.55;;;15.80;;
31130;SDS011;20292;50.944;4.034;2023-11-21T06:03:16;28.15;;;16.85;;
31130;SDS011;20292;50.944;4.034;2023-11-21T06:05:42;30.92;;;17.10;;
31130;SDS011;20292;50.944;4.034;2023-11-21T06:08:08;31.38;;;17.55;;
31130;SDS011;20292;50.944;4.034;2023-11-21T06:10:34;32.40;;;17.73;;
31130;SDS011;20292;50.944;4.034;2023-11-21T06:12:59;36.80;;;19.60;;
31130;SDS011;20292;50.944;4.034;2023-11-21T06:15:25;39.55;;;18.33;;
31130;SDS011;20292;50.944;4.034;2023-11-21T06:17:50;38.67;;;17.90;;
31130;SDS011;20292;50.944;4.034;2023-11-21T06:20:19;36.00;;;18.70;;
31130;SDS011;20292;50.944;4.034;2023-11-21T06:22:47;39.53;;;18.55;;
31130;SDS011;20292;50.944;4.034;2023-11-21T06:25:14;32.08;;;17.63;;
31130;SDS011;20292;50.944;4.034;2023-11-21T06:27:40;35.50;;;17.25;;
31130;SDS011;20292;50.944;4.034;2023-11-21T06:30:10;37.45;;;18.92;;
31130;SDS011;20292;50.944;4.034;2023-11-21T06:32:37;33.72;;;17.63;;
31130;SDS011;20292;50.944;4.034;2023-11-21T06:35:03;39.60;;;18.10;;
31130;SDS011;20292;50.944;4.034;2023-11-21T06:37:30;35.08;;;17.83;;
31130;SDS011;20292;50.944;4.034;2023-11-21T06:39:57;38.03;;;18.75;;
31130;SDS011;20292;50.944;4.034;2023-11-21T06:42:24;35.72;;;18.67;;
31130;SDS011;20292;50.944;4.034;2023-11-21T06:44:50;36.17;;;18.98;;
31130;SDS011;20292;50.944;4.034;2023-11-21T06:47:17;39.05;;;18.92;;
31130;SDS011;20292;50.944;4.034;2023-11-21T06:49:45;38.10;;;19.20;;
31130;SDS011;20292;50.944;4.034;2023-11-21T06:52:12;45.55;;;21.40;;
31130;SDS011;20292;50.944;4.034;2023-11-21T06:54:38;41.80;;;21.23;;
31130;SDS011;20292;50.944;4.034;2023-11-21T06:57:04;41.35;;;21.40;;
31130;SDS011;20292;50.944;4.034;2023-11-21T06:59:29;41.80;;;20.90;;
31130;SDS011;20292;50.944;4.034;2023-11-21T07:01:55;40.92;;;19.70;;
31130;SDS011;20292;50.944;4.034;2023-11-21T07:04:20;41.08;;;21.65;;
31130;SDS011;20292;50.944;4.034;2023-11-21T07:06:46;43.20;;;21.05;;
31130;SDS011;20292;50.944;4.034;2023-11-21T07:09:12;39.33;;;22.17;;
31130;SDS011;20292;50.944;4.034;2023-11-21T07:11:38;46.25;;;22.92;;
31130;SDS011;20292;50.944;4.034;2023-11-21T07:14:04;43.20;;;22.73;;
31130;SDS011;20292;50.944;4.034;2023-11-21T07:16:35;48.97;;;22.90;;
31130;SDS011;20292;50.944;4.034;2023-11-21T07:19:04;41.47;;;23.38;;
31130;SDS011;20292;50.944;4.034;2023-11-21T07:21:33;49.35;;;23.48;;
31130;SDS011;20292;50.944;4.034;2023-11-21T07:24:00;47.17;;;23.25;;
31130;SDS011;20292;50.944;4.034;2023-11-21T07:26:26;39.63;;;21.15;;
31130;SDS011;20292;50.944;4.034;2023-11-21T07:28:52;41.55;;;22.00;;
31130;SDS011;20292;50.944;4.034;2023-11-21T07:31:17;50.75;;;22.38;;
31130;SDS011;20292;50.944;4.034;2023-11-21T07:33:44;44.67;;;21.95;;
31130;SDS011;20292;50.944;4.034;2023-11-21T07:36:12;42.05;;;22.15;;
31130;SDS011;20292;50.944;4.034;2023-11-21T07:38:38;42.03;;;21.65;;
31130;SDS011;20292;50.944;4.034;2023-11-21T07:41:04;43.65;;;21.95;;
31130;SDS011;20292;50.944;4.034;2023-11-21T07:43:30;43.42;;;22.98;;
31130;SDS011;20292;50.944;4.034;2023-11-21T07:46:00;45.42;;;23.02;;
31130;SDS011;20292;50.944;4.034;2023-11-21T07:48:27;45.90;;;22.83;;
31130;SDS011;20292;50.944;4.034;2023-11-21T07:50:53;44.10;;;22.48;;
31130;SDS011;20292;50.944;4.034;2023-11-21T07:53:19;47.13;;;21.48;;
31130;SDS011;20292;50.944;4.034;2023-11-21T07:55:44;43.45;;;22.08;;
31130;SDS011;20292;50.944;4.034;2023-11-21T07:58:12;56.50;;;22.70;;
31130;SDS011;20292;50.944;4.034;2023-11-21T08:00:37;45.88;;;21.83;;
31130;SDS011;20292;50.944;4.034;2023-11-21T08:03:04;45.03;;;21.92;;
31130;SDS011;20292;50.944;4.034;2023-11-21T08:05:30;55.47;;;24.25;;
31130;SDS011;20292;50.944;4.034;2023-11-21T08:07:56;50.72;;;21.60;;
31130;SDS011;20292;50.944;4.034;2023-11-21T08:10:22;53.88;;;22.65;;
31130;SDS011;20292;50.944;4.034;2023-11-21T08:12:48;57.17;;;23.05;;
31130;SDS011;20292;50.944;4.034;2023-11-21T08:15:15;56.85;;;23.55;;
31130;SDS011;20292;50.944;4.034;2023-11-21T08:17:41;55.72;;;21.98;;
31130;SDS011;20292;50.944;4.034;2023-11-21T08:20:06;59.17;;;24.80;;
31130;SDS011;20292;50.944;4.034;2023-11-21T08:22:33;54.65;;;22.92;;
31130;SDS011;20292;50.944;4.034;2023-11-21T08:24:59;63.45;;;24.30;;
31130;SDS011;20292;50.944;4.034;2023-11-21T08:27:25;64.55;;;23.63;;
31130;SDS011;20292;50.944;4.034;2023-11-21T08:29:50;62.33;;;24.65;;
31130;SDS011;20292;50.944;4.034;2023-11-21T08:32:17;63.20;;;24.63;;
31130;SDS011;20292;50.944;4.034;2023-11-21T08:34:43;64.70;;;25.23;;
31130;SDS011;20292;50.944;4.034;2023-11-21T08:37:09;68.43;;;26.30;;
31130;SDS011;20292;50.944;4.034;2023-11-21T08:39:36;70.35;;;25.23;;
31130;SDS011;20292;50.944;4.034;2023-11-21T08:42:03;71.35;;;25.33;;
31130;SDS011;20292;50.944;4.034;2023-11-21T08:44:28;75.68;;;25.88;;
31130;SDS011;20292;50.944;4.034;2023-11-21T08:46:55;67.78;;;24.65;;
31130;SDS011;20292;50.944;4.034;2023-11-21T08:49:20;73.93;;;25.63;;
31130;SDS011;20292;50.944;4.034;2023-11-21T08:51:46;68.38;;;26.25;;
31130;SDS011;20292;50.944;4.034;2023-11-21T08:54:12;69.40;;;26.77;;
31130;SDS011;20292;50.944;4.034;2023-11-21T08:56:37;67.57;;;24.80;;
31130;SDS011;20292;50.944;4.034;2023-11-21T08:59:05;66.07;;;26.00;;
31130;SDS011;20292;50.944;4.034;2023-11-21T09:01:32;67.47;;;25.50;;
31130;SDS011;20292;50.944;4.034;2023-11-21T09:03:58;73.60;;;26.75;;
31130;SDS011;20292;50.944;4.034;2023-11-21T09:06:24;70.22;;;26.48;;
31130;SDS011;20292;50.944;4.034;2023-11-21T09:08:50;72.32;;;26.75;;
31130;SDS011;20292;50.944;4.034;2023-11-21T09:11:15;69.95;;;26.23;;
31130;SDS011;20292;50.944;4.034;2023-11-21T09:13:41;76.28;;;27.98;;
31130;SDS011;20292;50.944;4.034;2023-11-21T09:16:07;71.68;;;26.65;;
31130;SDS011;20292;50.944;4.034;2023-11-21T09:18:33;74.30;;;27.13;;
31130;SDS011;20292;50.944;4.034;2023-11-21T09:20:59;72.20;;;27.38;;
31130;SDS011;20292;50.944;4.034;2023-11-21T09:23:24;68.95;;;26.90;;
31130;SDS011;20292;50.944;4.034;2023-11-21T09:25:50;65.70;;;26.80;;
31130;SDS011;20292;50.944;4.034;2023-11-21T09:28:17;58.03;;;25.50;;
31130;SDS011;20292;50.944;4.034;2023-11-21T09:30:43;66.97;;;26.45;;
31130;SDS011;20292;50.944;4.034;2023-11-21T09:33:08;66.72;;;26.15;;
31130;SDS011;20292;50.944;4.034;2023-11-21T09:35:36;59.35;;;24.50;;
31130;SDS011;20292;50.944;4.034;2023-11-21T09:38:03;46.78;;;21.58;;
31130;SDS011;20292;50.944;4.034;2023-11-21T09:40:35;40.83;;;20.13;;
31130;SDS011;20292;50.944;4.034;2023-11-21T09:43:00;40.45;;;19.38;;
31130;SDS011;20292;50.944;4.034;2023-11-21T09:45:34;40.72;;;18.42;;
31130;SDS011;20292;50.944;4.034;2023-11-21T09:48:00;34.10;;;17.77;;
31130;SDS011;20292;50.944;4.034;2023-11-21T09:50:26;35.42;;;18.58;;
31130;SDS011;20292;50.944;4.034;2023-11-21T09:55:40;36.38;;;18.27;;
31130;SDS011;20292;50.944;4.034;2023-11-21T09:58:08;38.88;;;18.35;;
31130;SDS011;20292;50.944;4.034;2023-11-21T10:00:38;33.08;;;17.58;;
31130;SDS011;20292;50.944;4.034;2023-11-21T10:03:14;34.85;;;17.75;;
31130;SDS011;20292;50.944;4.034;2023-11-21T10:05:42;29.63;;;17.40;;
31130;SDS011;20292;50.944;4.034;2023-11-21T10:08:09;30.45;;;17.52;;
31130;SDS011;20292;50.944;4.034;2023-11-21T10:10:36;27.70;;;17.13;;
31130;SDS011;20292;50.944;4.034;2023-11-21T10:13:03;31.40;;;17.50;;
31130;SDS011;20292;50.944;4.034;2023-11-21T10:15:33;27.20;;;15.75;;
31130;SDS011;20292;50.944;4.034;2023-11-21T10:17:59;24.05;;;15.18;;
31130;SDS011;20292;50.944;4.034;2023-11-21T10:20:31;29.25;;;15.18;;
31130;SDS011;20292;50.944;4.034;2023-11-21T10:22:58;25.50;;;14.45;;
31130;SDS011;20292;50.944;4.034;2023-11-21T10:25:27;23.88;;;13.88;;
31130;SDS011;20292;50.944;4.034;2023-11-21T10:27:57;22.83;;;13.23;;
31130;SDS011;20292;50.944;4.034;2023-11-21T10:30:32;26.23;;;14.27;;
31130;SDS011;20292;50.944;4.034;2023-11-21T10:33:03;23.10;;;13.73;;
31130;SDS011;20292;50.944;4.034;2023-11-21T10:35:45;20.35;;;11.65;;
31130;SDS011;20292;50.944;4.034;2023-11-21T10:38:15;19.05;;;10.98;;
31130;SDS011;20292;50.944;4.034;2023-11-21T10:40:42;18.10;;;10.65;;
31130;SDS011;20292;50.944;4.034;2023-11-21T10:43:09;16.95;;;10.13;;
31130;SDS011;20292;50.944;4.034;2023-11-21T10:45:38;14.05;;;8.05;;
31130;SDS011;20292;50.944;4.034;2023-11-21T10:48:05;16.77;;;8.15;;
31130;SDS011;20292;50.944;4.034;2023-11-21T10:50:33;17.27;;;6.72;;
31130;SDS011;20292;50.944;4.034;2023-11-21T10:53:03;15.90;;;5.97;;
31130;SDS011;20292;50.944;4.034;2023-11-21T10:55:29;11.40;;;5.78;;
31130;SDS011;20292;50.944;4.034;2023-11-21T10:57:58;17.25;;;5.65;;
31130;SDS011;20292;50.944;4.034;2023-11-21T11:00:25;9.00;;;4.40;;
31130;SDS011;20292;50.944;4.034;2023-11-21T11:02:52;11.75;;;4.55;;
31130;SDS011;20292;50.944;4.034;2023-11-21T11:05:20;11.05;;;4.80;;
31130;SDS011;20292;50.944;4.034;2023-11-21T11:07:48;9.27;;;4.15;;
31130;SDS011;20292;50.944;4.034;2023-11-21T11:10:19;12.45;;;4.70;;
31130;SDS011;20292;50.944;4.034;2023-11-21T11:12:47;9.38;;;4.63;;
31130;SDS011;20292;50.944;4.034;2023-11-21T11:15:15;14.02;;;4.88;;
31130;SDS011;20292;50.944;4.034;2023-11-21T11:17:41;13.98;;;5.25;;
31130;SDS011;20292;50.944;4.034;2023-11-21T11:20:10;12.95;;;4.50;;
31130;SDS011;20292;50.944;4.034;2023-11-21T11:28:26;12.82;;;4.57;;
31130;SDS011;20292;50.944;4.034;2023-11-21T11:33:48;9.80;;;3.33;;
31130;SDS011;20292;50.944;4.034;2023-11-21T11:36:48;8.15;;;3.22;;
31130;SDS011;20292;50.944;4.034;2023-11-21T11:39:26;10.38;;;3.67;;
31130;SDS011;20292;50.944;4.034;2023-11-21T11:41:56;13.00;;;3.53;;
31130;SDS011;20292;50.944;4.034;2023-11-21T11:44:47;9.70;;;2.80;;
31130;SDS011;20292;50.944;4.034;2023-11-21T11:47:14;10.18;;;2.72;;
31130;SDS011;20292;50.944;4.034;2023-11-21T11:49:57;8.90;;;2.78;;
31130;SDS011;20292;50.944;4.034;2023-11-21T11:52:35;7.00;;;2.47;;
31130;SDS011;20292;50.944;4.034;2023-11-21T11:55:06;5.28;;;2.13;;
31130;SDS011;20292;50.944;4.034;2023-11-21T11:57:35;7.97;;;2.83;;
31130;SDS011;20292;50.944;4.034;2023-11-21T12:00:07;9.38;;;2.20;;
31130;SDS011;20292;50.944;4.034;2023-11-21T12:02:37;6.82;;;2.90;;
31130;SDS011;20292;50.944;4.034;2023-11-21T12:05:11;7.55;;;2.75;;
31130;SDS011;20292;50.944;4.034;2023-11-21T12:07:54;8.38;;;2.67;;
31130;SDS011;20292;50.944;4.034;2023-11-21T12:10:26;4.68;;;2.63;;
31130;SDS011;20292;50.944;4.034;2023-11-21T12:12:55;7.45;;;2.80;;
31130;SDS011;20292;50.944;4.034;2023-11-21T12:15:22;8.15;;;2.58;;
31130;SDS011;20292;50.944;4.034;2023-11-21T12:17:48;6.47;;;2.97;;
31130;SDS011;20292;50.944;4.034;2023-11-21T12:20:16;7.70;;;3.40;;
31130;SDS011;20292;50.944;4.034;2023-11-21T12:25:14;8.27;;;2.95;;
31130;SDS011;20292;50.944;4.034;2023-11-21T12:27:47;7.80;;;2.60;;
31130;SDS011;20292;50.944;4.034;2023-11-21T12:30:15;8.65;;;3.25;;
31130;SDS011;20292;50.944;4.034;2023-11-21T12:32:47;5.72;;;2.67;;
31130;SDS011;20292;50.944;4.034;2023-11-21T12:35:14;12.15;;;3.50;;
31130;SDS011;20292;50.944;4.034;2023-11-21T12:37:40;9.55;;;3.47;;
31130;SDS011;20292;50.944;4.034;2023-11-21T12:40:08;6.63;;;3.10;;
31130;SDS011;20292;50.944;4.034;2023-11-21T12:42:37;8.95;;;3.10;;
31130;SDS011;20292;50.944;4.034;2023-11-21T12:45:18;9.82;;;3.30;;
31130;SDS011;20292;50.944;4.034;2023-11-21T12:47:48;6.15;;;3.58;;
31130;SDS011;20292;50.944;4.034;2023-11-21T12:50:15;8.07;;;3.38;;
31130;SDS011;20292;50.944;4.034;2023-11-21T12:52:47;6.25;;;3.25;;
31130;SDS011;20292;50.944;4.034;2023-11-21T12:55:16;7.95;;;3.47;;
31130;SDS011;20292;50.944;4.034;2023-11-21T12:57:49;10.77;;;4.15;;
31130;SDS011;20292;50.944;4.034;2023-11-21T13:00:17;8.82;;;4.95;;
31130;SDS011;20292;50.944;4.034;2023-11-21T13:02:56;13.05;;;5.53;;
31130;SDS011;20292;50.944;4.034;2023-11-21T13:05:24;13.68;;;5.78;;
31130;SDS011;20292;50.944;4.034;2023-11-21T13:07:53;11.52;;;6.68;;
31130;SDS011;20292;50.944;4.034;2023-11-21T13:10:23;11.35;;;6.63;;
31130;SDS011;20292;50.944;4.034;2023-11-21T13:12:52;11.95;;;6.90;;
31130;SDS011;20292;50.944;4.034;2023-11-21T13:15:18;15.57;;;7.68;;
31130;SDS011;20292;50.944;4.034;2023-11-21T13:17:44;12.95;;;7.38;;
31130;SDS011;20292;50.944;4.034;2023-11-21T13:20:11;12.63;;;7.28;;
31130;SDS011;20292;50.944;4.034;2023-11-21T13:22:46;14.02;;;8.10;;
31130;SDS011;20292;50.944;4.034;2023-11-21T13:25:11;11.75;;;7.60;;
31130;SDS011;20292;50.944;4.034;2023-11-21T13:27:39;12.43;;;8.18;;
31130;SDS011;20292;50.944;4.034;2023-11-21T13:30:05;15.02;;;8.43;;
31130;SDS011;20292;50.944;4.034;2023-11-21T13:32:33;14.10;;;8.48;;
31130;SDS011;20292;50.944;4.034;2023-11-21T13:34:59;13.05;;;8.80;;
31130;SDS011;20292;50.944;4.034;2023-11-21T13:37:25;12.88;;;9.02;;
31130;SDS011;20292;50.944;4.034;2023-11-21T13:39:53;13.45;;;8.35;;
31130;SDS011;20292;50.944;4.034;2023-11-21T13:42:19;17.33;;;8.40;;
31130;SDS011;20292;50.944;4.034;2023-11-21T13:44:48;12.35;;;8.27;;
31130;SDS011;20292;50.944;4.034;2023-11-21T13:47:16;11.57;;;8.38;;
31130;SDS011;20292;50.944;4.034;2023-11-21T13:49:42;12.48;;;7.45;;
31130;SDS011;20292;50.944;4.034;2023-11-21T13:52:07;14.02;;;8.25;;
31130;SDS011;20292;50.944;4.034;2023-11-21T13:54:36;13.05;;;8.18;;
31130;SDS011;20292;50.944;4.034;2023-11-21T13:57:01;12.55;;;8.35;;
31130;SDS011;20292;50.944;4.034;2023-11-21T13:59:28;12.05;;;7.53;;
31130;SDS011;20292;50.944;4.034;2023-11-21T14:01:55;13.25;;;7.88;;
31130;SDS011;20292;50.944;4.034;2023-11-21T14:04:24;14.48;;;7.95;;
31130;SDS011;20292;50.944;4.034;2023-11-21T14:06:57;13.10;;;6.80;;
31130;SDS011;20292;50.944;4.034;2023-11-21T14:09:25;10.20;;;5.90;;
31130;SDS011;20292;50.944;4.034;2023-11-21T14:11:58;8.70;;;5.47;;
31130;SDS011;20292;50.944;4.034;2023-11-21T14:14:25;9.07;;;5.60;;
31130;SDS011;20292;50.944;4.034;2023-11-21T14:16:53;9.02;;;5.28;;
31130;SDS011;20292;50.944;4.034;2023-11-21T14:19:20;8.23;;;5.25;;
31130;SDS011;20292;50.944;4.034;2023-11-21T14:21:47;7.97;;;5.40;;
31130;SDS011;20292;50.944;4.034;2023-11-21T14:24:15;8.77;;;5.05;;
31130;SDS011;20292;50.944;4.034;2023-11-21T14:26:47;8.88;;;4.80;;
31130;SDS011;20292;50.944;4.034;2023-11-21T14:29:13;9.68;;;5.88;;
31130;SDS011;20292;50.944;4.034;2023-11-21T14:31:42;10.73;;;5.45;;
31130;SDS011;20292;50.944;4.034;2023-11-21T14:34:08;8.40;;;5.60;;
31130;SDS011;20292;50.944;4.034;2023-11-21T14:36:34;8.48;;;5.60;;
31130;SDS011;20292;50.944;4.034;2023-11-21T14:39:01;13.27;;;6.25;;
31130;SDS011;20292;50.944;4.034;2023-11-21T14:41:32;9.10;;;6.28;;
31130;SDS011;20292;50.944;4.034;2023-11-21T14:44:00;11.93;;;6.70;;